createdAt,value
2022-08-07T00:01:43.559Z,70.13
2022-08-07T00:04:06.816Z,71.03
2022-08-07T00:06:51.228Z,70.80
2022-08-07T00:09:22.817Z,70.54
2022-08-07T00:11:55.239Z,72.07
2022-08-07T00:14:31.253Z,72.81
2022-08-07T00:17:01.814Z,71.86
2022-08-07T00:19:56.016Z,73.70
2022-08-07T00:22:24.415Z,72.27
2022-08-07T00:25:03.590Z,72.14
2022-08-07T00:27:35.823Z,72.74
2022-08-07T00:30:26.983Z,73.38
2022-08-07T00:32:57.198Z,73.29
2022-08-07T00:35:25.945Z,73.86
2022-08-07T00:37:55.242Z,74.23
2022-08-07T00:40:36.194Z,74.14
2022-08-07T00:43:09.746Z,73.89
2022-08-07T00:45:40.783Z,73.27
2022-08-07T00:48:11.032Z,73.73
2022-08-07T00:50:50.397Z,74.42
2022-08-07T00:53:19.482Z,74.56
2022-08-07T00:56:02.446Z,73.53
2022-08-07T00:58:32.637Z,72.37
2022-08-07T01:01:02.424Z,72.37
2022-08-07T01:03:55.298Z,72.69
2022-08-07T01:06:20.013Z,73.16
2022-08-07T01:08:53.328Z,74.37
2022-08-07T01:12:10.140Z,73.98
2022-08-07T01:14:12.058Z,70.64
2022-08-07T01:16:47.163Z,70.72
2022-08-07T01:19:19.191Z,68.72
2022-08-07T01:21:53.494Z,67.42
2022-08-07T01:24:24.130Z,67.80
2022-08-07T01:26:53.743Z,69.59
2022-08-07T01:29:27.630Z,70.05
2022-08-07T01:31:59.458Z,70.02
2022-08-07T01:34:30.667Z,70.04
2022-08-07T01:37:01.697Z,69.72
2022-08-07T01:39:40.922Z,70.94
2022-08-07T01:42:38.748Z,72.04
2022-08-07T01:45:09.731Z,72.53
2022-08-07T01:48:20.112Z,72.55
2022-08-07T01:50:33.939Z,72.43
2022-08-07T01:53:08.831Z,72.14
2022-08-07T01:55:40.786Z,71.57
2022-08-07T01:58:29.642Z,70.23
2022-08-07T02:01:25.133Z,70.54
2022-08-07T02:03:59.815Z,72.14
2022-08-07T02:06:32.540Z,71.13
2022-08-07T02:09:06.588Z,70.36
2022-08-07T02:12:04.213Z,71.56
2022-08-07T02:14:40.403Z,70.68
2022-08-07T02:17:09.758Z,70.90
2022-08-07T02:20:04.526Z,68.49
2022-08-07T02:22:32.110Z,69.41
2022-08-07T02:25:07.118Z,71.03
2022-08-07T02:27:44.430Z,71.68
2022-08-07T02:30:20.621Z,72.52
2022-08-07T02:33:00.605Z,72.99
2022-08-07T02:36:28.873Z,72.19
2022-08-07T02:38:31.972Z,72.08
2022-08-07T02:41:04.099Z,73.62
2022-08-07T02:43:34.600Z,73.31
2022-08-07T02:46:05.666Z,73.00
2022-08-07T02:48:34.454Z,73.02
2022-08-07T02:51:14.220Z,72.26
2022-08-07T02:53:59.215Z,70.58
2022-08-07T02:56:31.997Z,71.91
2022-08-07T02:59:03.436Z,72.66
2022-08-07T03:01:36.605Z,72.39
2022-08-07T03:04:12.620Z,72.69
2022-08-07T03:06:44.821Z,73.53
2022-08-07T03:09:43.653Z,73.94
2022-08-07T03:12:06.901Z,73.29
2022-08-07T03:14:37.440Z,70.85
2022-08-07T03:17:08.837Z,67.76
2022-08-07T03:19:37.602Z,67.10
2022-08-07T03:22:07.154Z,65.47
2022-08-07T03:24:36.643Z,67.00
2022-08-07T03:27:09.315Z,67.06
2022-08-07T03:29:44.568Z,70.13
2022-08-07T03:32:20.267Z,72.43
2022-08-07T03:35:17.055Z,73.24
2022-08-07T03:37:53.274Z,73.93
2022-08-07T03:40:23.881Z,74.09
2022-08-07T03:43:01.650Z,74.67
2022-08-07T03:45:31.600Z,72.94
2022-08-07T03:48:00.617Z,73.44
2022-08-07T03:50:29.906Z,73.97
2022-08-07T03:53:00.184Z,74.47
2022-08-07T03:55:53.314Z,75.19
2022-08-07T03:59:05.644Z,75.12
2022-08-07T04:01:13.910Z,74.79
2022-08-07T04:03:53.486Z,75.97
2022-08-07T04:06:37.722Z,76.40
2022-08-07T04:09:08.516Z,77.22
2022-08-07T04:12:25.607Z,76.58
2022-08-07T04:14:38.510Z,76.52
2022-08-07T04:17:19.758Z,75.76
2022-08-07T04:20:01.374Z,74.82
2022-08-07T04:22:30.130Z,76.01
2022-08-07T04:25:01.053Z,77.82
2022-08-07T04:27:35.851Z,78.11
2022-08-07T04:30:35.756Z,77.99
2022-08-07T04:32:58.983Z,78.75
2022-08-07T04:35:27.188Z,78.98
2022-08-07T04:38:07.750Z,79.51
2022-08-07T04:40:36.589Z,79.08
2022-08-07T04:44:09.675Z,79.16
2022-08-07T04:46:25.957Z,79.51
2022-08-07T04:49:17.672Z,78.69
2022-08-07T04:51:55.629Z,78.68
2022-08-07T04:54:32.700Z,78.01
2022-08-07T04:58:10.346Z,76.64
2022-08-07T05:00:11.169Z,77.59
2022-08-07T05:02:54.419Z,78.80
2022-08-07T05:05:53.606Z,79.34
2022-08-07T05:08:58.950Z,77.15
2022-08-07T05:11:19.282Z,77.04
2022-08-07T05:14:54.050Z,76.61
2022-08-07T05:16:47.624Z,72.16
2022-08-07T05:19:32.556Z,68.15
2022-08-07T05:22:19.027Z,66.97
2022-08-07T05:24:59.540Z,65.94
2022-08-07T05:28:03.251Z,63.87
2022-08-07T05:30:30.030Z,64.80
2022-08-07T05:33:03.335Z,64.31
2022-08-07T05:35:42.094Z,64.51
2022-08-07T05:38:12.500Z,63.97
2022-08-07T05:41:01.285Z,62.56
2022-08-07T05:43:49.897Z,62.49
2022-08-07T05:46:26.518Z,60.89
2022-08-07T05:48:59.132Z,59.18
2022-08-07T05:51:31.598Z,58.63
2022-08-07T05:54:13.912Z,57.89
2022-08-07T05:56:51.283Z,57.62
2022-08-07T05:59:20.996Z,56.52
2022-08-07T06:01:51.469Z,56.14
2022-08-07T06:04:26.273Z,56.28
2022-08-07T06:07:04.558Z,55.72
2022-08-07T06:09:45.093Z,55.24
2022-08-07T06:12:31.629Z,55.58
2022-08-07T06:15:05.239Z,55.18
2022-08-07T06:17:38.057Z,54.96
2022-08-07T06:20:12.259Z,53.81
2022-08-07T06:22:50.749Z,53.12
2022-08-07T06:25:34.922Z,52.94
2022-08-07T06:28:04.881Z,53.30
2022-08-07T06:30:37.258Z,53.27
2022-08-07T06:33:16.154Z,53.10
2022-08-07T06:35:48.019Z,52.97
2022-08-07T06:38:35.113Z,53.11
2022-08-07T06:41:07.112Z,52.50
2022-08-07T06:43:39.521Z,52.39
2022-08-07T06:46:11.459Z,51.58
2022-08-07T06:48:42.202Z,51.75
2022-08-07T06:51:31.334Z,52.31
2022-08-07T06:55:27.500Z,52.04
2022-08-07T06:56:55.728Z,51.15
2022-08-07T07:00:12.198Z,50.37
2022-08-07T07:02:49.067Z,50.78
2022-08-07T07:05:09.302Z,50.83
2022-08-07T07:07:59.402Z,51.70
2022-08-07T07:10:35.160Z,50.75
2022-08-07T07:13:10.142Z,50.41
2022-08-07T07:15:45.663Z,50.67
2022-08-07T07:18:47.295Z,50.22
2022-08-07T07:21:19.547Z,49.28
2022-08-07T07:24:08.445Z,51.49
2022-08-07T07:26:49.713Z,49.71
2022-08-07T07:29:55.892Z,49.78
2022-08-07T07:32:14.745Z,49.46
2022-08-07T07:34:48.657Z,49.73
2022-08-07T09:37:53.665Z,41.27
2022-08-07T09:40:30.043Z,40.43
2022-08-07T09:43:18.633Z,41.32
2022-08-07T09:47:50.444Z,41.05
2022-08-07T09:50:02.567Z,41.43
2022-08-07T09:52:15.630Z,40.93
2022-08-07T09:54:51.969Z,40.58
2022-08-07T09:58:08.519Z,40.27
2022-08-07T10:00:52.071Z,39.47
2022-08-07T10:04:06.799Z,39.26
2022-08-07T10:07:03.773Z,38.29
2022-08-07T10:10:00.196Z,38.35
2022-08-07T10:12:52.995Z,38.41
2022-08-07T10:15:45.042Z,38.45
2022-08-07T10:18:46.273Z,37.93
2022-08-07T10:22:14.731Z,38.43
2022-08-07T10:24:46.678Z,37.72
2022-08-07T10:27:46.516Z,37.40
2022-08-07T10:30:26.895Z,36.22
2022-08-07T10:34:06.503Z,36.47
2022-08-07T10:36:30.187Z,35.68
2022-08-07T10:39:25.649Z,37.25
2022-08-07T10:42:30.906Z,36.79
2022-08-07T10:45:44.174Z,35.97
2022-08-07T10:48:37.736Z,36.60
2022-08-07T10:51:16.349Z,35.24
2022-08-07T10:54:12.188Z,34.96
2022-08-07T10:56:50.783Z,35.27
2022-08-07T10:59:31.827Z,33.79
2022-08-07T11:02:33.545Z,33.89
2022-08-07T11:05:15.278Z,35.22
2022-08-07T11:08:01.563Z,33.90
2022-08-07T11:10:39.577Z,34.04
2022-08-07T11:14:46.136Z,34.40
2022-08-07T11:16:10.225Z,34.50
2022-08-07T11:18:50.933Z,34.52
2022-08-07T11:21:32.087Z,34.67
2022-08-07T11:24:14.296Z,34.19
2022-08-07T11:26:51.484Z,33.32
2022-08-07T11:29:41.466Z,32.80
2022-08-07T11:32:25.223Z,33.24
2022-08-07T11:34:59.927Z,33.42
2022-08-07T11:37:57.437Z,32.23
2022-08-07T11:40:35.958Z,32.43
2022-08-07T11:43:16.417Z,31.72
2022-08-07T11:46:21.102Z,32.47
2022-08-07T11:49:50.244Z,32.32
2022-08-07T11:52:29.269Z,32.04
2022-08-07T11:55:18.828Z,31.94
2022-08-07T11:58:12.578Z,31.58
2022-08-07T12:01:02.193Z,32.30
2022-08-07T12:03:51.384Z,32.82
2022-08-07T12:06:37.378Z,31.78
2022-08-07T12:09:16.441Z,31.12
2022-08-07T12:12:10.335Z,31.79
2022-08-07T12:14:55.555Z,31.71
2022-08-07T12:17:33.777Z,31.49
2022-08-07T12:20:18.528Z,31.73
2022-08-07T12:23:14.547Z,32.38
2022-08-07T12:26:22.056Z,32.57
2022-08-07T12:28:53.125Z,31.51
2022-08-07T12:31:53.350Z,30.84
2022-08-07T12:34:19.994Z,31.22
2022-08-07T12:36:52.466Z,31.04
2022-08-07T12:39:44.181Z,31.13
2022-08-07T12:42:15.959Z,31.17
2022-08-07T12:44:48.834Z,31.40
2022-08-07T12:47:27.072Z,30.54
2022-08-07T12:50:38.527Z,30.20
2022-08-07T12:53:05.340Z,31.13
2022-08-07T12:56:02.546Z,31.96
2022-08-07T12:58:39.281Z,32.08
2022-08-07T13:01:18.417Z,31.10
2022-08-07T13:04:05.038Z,30.14
2022-08-07T13:07:00.789Z,30.37
2022-08-07T13:10:19.736Z,30.24
2022-08-07T13:12:43.177Z,30.37
2022-08-07T13:15:23.717Z,29.76
2022-08-07T13:18:04.817Z,29.37
2022-08-07T13:20:44.630Z,30.20
2022-08-07T13:24:02.974Z,29.91
2022-08-07T13:26:12.665Z,30.51
2022-08-07T13:28:50.052Z,30.35
2022-08-07T13:31:31.962Z,30.82
2022-08-07T13:34:31.999Z,31.00
2022-08-07T13:37:10.518Z,30.85
2022-08-07T13:40:34.268Z,30.37
2022-08-07T13:42:39.767Z,30.12
2022-08-07T13:46:06.390Z,30.72
2022-08-07T13:48:08.703Z,31.25
2022-08-07T13:50:44.466Z,30.45
2022-08-07T13:53:55.258Z,30.67
2022-08-07T13:56:20.119Z,30.85
2022-08-07T13:59:05.887Z,31.00
2022-08-07T14:01:51.471Z,31.03
2022-08-07T14:04:29.625Z,29.64
2022-08-07T14:06:59.987Z,29.26
2022-08-07T14:10:01.564Z,29.45
2022-08-07T14:12:28.224Z,29.14
2022-08-07T14:15:02.801Z,29.96
2022-08-07T14:18:27.114Z,29.88
2022-08-07T14:20:41.760Z,28.55
2022-08-07T14:23:17.889Z,29.45
2022-08-07T14:26:05.376Z,29.51
2022-08-07T14:28:57.312Z,29.13
2022-08-07T14:31:42.866Z,28.17
2022-08-07T14:34:22.711Z,28.49
2022-08-07T14:36:57.353Z,29.53
2022-08-07T14:40:16.870Z,30.49
2022-08-07T14:42:22.586Z,29.13
2022-08-07T14:44:59.616Z,29.56
2022-08-07T14:47:33.963Z,28.76
2022-08-07T14:50:11.521Z,28.29
2022-08-07T14:52:43.853Z,28.74
2022-08-07T14:55:17.532Z,28.26
2022-08-07T14:58:06.297Z,28.82
2022-08-07T15:00:53.481Z,28.24
2022-08-07T15:06:16.967Z,27.97
2022-08-07T15:08:54.486Z,28.62
2022-08-07T15:13:06.074Z,27.58
2022-08-07T15:14:21.172Z,27.91
2022-08-07T15:16:55.696Z,27.63
2022-08-07T15:20:31.586Z,28.20
2022-08-07T15:22:29.272Z,28.59
2022-08-07T15:25:17.077Z,27.59
2022-08-07T15:28:30.673Z,28.26
2022-08-07T15:33:36.878Z,27.88
2022-08-07T15:36:07.873Z,27.83
2022-08-07T15:38:58.993Z,27.80
2022-08-07T15:42:42.475Z,28.11
2022-08-07T15:44:23.656Z,28.10
2022-08-07T15:47:03.306Z,27.58
2022-08-07T15:50:05.863Z,27.34
2022-08-07T15:52:31.431Z,26.95
2022-08-07T15:55:08.889Z,27.16
2022-08-07T15:57:49.414Z,27.11
2022-08-07T16:00:31.115Z,26.37
2022-08-07T16:03:05.642Z,26.78
2022-08-07T16:05:53.061Z,26.33
2022-08-07T16:08:37.578Z,26.94
2022-08-07T16:11:27.139Z,26.90
2022-08-07T16:14:12.872Z,27.26
2022-08-07T16:16:57.212Z,27.04
2022-08-07T16:19:43.089Z,27.47
2022-08-07T16:23:05.484Z,27.52
2022-08-07T16:25:55.450Z,27.40
2022-08-07T16:30:06.924Z,27.05
2022-08-07T16:31:51.409Z,26.92
2022-08-07T16:34:37.892Z,26.38
2022-08-07T16:38:06.452Z,27.15
2022-08-07T16:41:28.715Z,27.36
2022-08-07T16:45:04.112Z,27.17
2022-08-07T16:48:28.566Z,27.23
2022-08-07T16:51:54.680Z,27.40
2022-08-07T16:54:54.922Z,26.82
2022-08-07T16:58:01.974Z,26.63
2022-08-07T17:00:29.931Z,27.41
2022-08-07T17:03:59.735Z,26.90
2022-08-07T17:06:44.782Z,26.52
2022-08-07T17:10:08.248Z,26.22
2022-08-07T17:12:34.118Z,27.14
2022-08-07T17:15:20.524Z,26.96
2022-08-07T17:17:59.135Z,26.97
2022-08-07T17:20:46.575Z,26.68
2022-08-07T17:23:44.360Z,26.56
2022-08-07T17:26:23.543Z,27.25
2022-08-07T17:29:19.718Z,26.58
2022-08-07T17:32:30.713Z,26.41
2022-08-07T17:35:50.538Z,26.58
2022-08-07T17:38:33.725Z,27.61
2022-08-07T17:42:02.531Z,27.08
2022-08-07T17:44:13.731Z,26.48
2022-08-07T17:46:56.520Z,26.96
2022-08-07T17:49:44.896Z,26.98
2022-08-07T17:52:30.864Z,27.50
2022-08-07T17:55:55.944Z,27.45
2022-08-07T17:58:30.488Z,27.14
2022-08-07T18:01:21.040Z,27.23
2022-08-07T18:04:16.254Z,27.48
2022-08-07T18:07:19.311Z,27.50
2022-08-07T18:10:06.863Z,27.55
2022-08-07T18:13:15.353Z,27.78
2022-08-07T18:16:03.876Z,27.59
2022-08-07T18:21:03.337Z,28.32
2022-08-07T18:21:56.667Z,27.88
2022-08-07T18:24:33.330Z,27.82
2022-08-07T18:27:23.731Z,28.05
2022-08-07T18:30:30.816Z,28.62
2022-08-07T18:33:27.059Z,28.01
2022-08-07T18:36:09.049Z,27.99
2022-08-07T18:38:55.492Z,28.43
2022-08-07T18:41:46.378Z,28.39
2022-08-07T18:44:30.658Z,28.61
2022-08-07T18:47:07.331Z,28.53
2022-08-07T18:50:32.561Z,29.09
2022-08-07T18:52:56.973Z,29.69
2022-08-07T18:55:55.927Z,29.50
2022-08-07T18:58:35.927Z,29.57
2022-08-07T19:02:19.029Z,30.23
2022-08-07T19:04:09.562Z,30.22
2022-08-07T19:06:49.495Z,30.50
2022-08-07T19:09:55.577Z,30.40
2022-08-07T19:12:19.797Z,30.54
2022-08-07T19:16:03.331Z,30.64
2022-08-07T19:18:03.317Z,31.01
2022-08-07T19:20:39.846Z,31.33
2022-08-07T19:23:58.213Z,31.20
2022-08-07T19:26:29.229Z,31.28
2022-08-07T19:31:03.257Z,31.44
2022-08-07T19:32:10.832Z,31.78
2022-08-07T19:34:48.413Z,31.88
2022-08-07T19:37:22.322Z,31.77
2022-08-07T19:40:01.853Z,32.18
2022-08-07T19:42:33.652Z,33.17
2022-08-07T19:45:13.763Z,33.18
2022-08-07T19:48:01.881Z,34.53
2022-08-07T19:50:30.112Z,35.55
2022-08-07T19:54:33.902Z,37.16
2022-08-07T19:56:13.584Z,39.41
2022-08-07T19:58:58.363Z,42.03
2022-08-07T20:01:52.900Z,42.80
2022-08-07T20:04:31.478Z,43.59
2022-08-07T20:07:10.297Z,44.53
2022-08-07T20:10:35.178Z,44.97
2022-08-07T20:12:38.217Z,45.38
2022-08-07T20:15:18.767Z,45.80
2022-08-07T20:18:01.668Z,47.00
2022-08-07T20:20:38.377Z,47.20
2022-08-07T20:23:22.817Z,47.80
2022-08-07T20:26:05.627Z,48.53
2022-08-07T20:28:42.206Z,49.14
2022-08-07T20:31:21.242Z,49.08
2022-08-07T20:33:56.542Z,48.85
2022-08-07T20:36:29.740Z,49.16
2022-08-07T20:39:06.048Z,48.89
2022-08-07T20:41:50.659Z,50.88
2022-08-07T20:44:19.455Z,49.04
2022-08-07T20:47:04.383Z,48.87
2022-08-07T20:49:59.230Z,49.58
2022-08-07T20:52:30.228Z,50.06
2022-08-07T20:55:23.856Z,50.11
2022-08-07T20:58:03.743Z,50.36
2022-08-07T21:00:42.752Z,50.46
2022-08-07T21:03:15.785Z,51.51
2022-08-07T21:05:54.475Z,50.79
2022-08-07T21:08:37.626Z,52.58
2022-08-07T21:11:14.396Z,53.00
2022-08-07T21:14:20.122Z,53.89
2022-08-07T21:16:56.078Z,53.66
2022-08-07T21:19:32.015Z,54.19
2022-08-07T21:22:19.345Z,54.34
2022-08-07T21:24:56.784Z,54.57
2022-08-07T21:27:39.844Z,55.47
2022-08-07T21:30:19.013Z,55.15
2022-08-07T21:32:58.407Z,56.18
2022-08-07T21:36:05.842Z,55.43
2022-08-07T21:38:44.439Z,55.71
2022-08-07T21:41:24.470Z,56.86
2022-08-07T21:44:01.439Z,57.19
2022-08-07T21:46:39.992Z,58.23
2022-08-07T21:49:18.092Z,58.06
2022-08-07T21:52:02.239Z,57.91
2022-08-07T21:54:48.348Z,58.96
2022-08-07T21:57:44.574Z,58.31
2022-08-07T22:00:22.759Z,59.50
2022-08-07T22:03:05.837Z,59.44
2022-08-07T22:05:50.110Z,60.23
2022-08-07T22:08:24.742Z,60.99
2022-08-07T22:10:56.452Z,62.07
2022-08-07T22:13:51.943Z,62.73
2022-08-07T22:16:38.653Z,63.52
2022-08-07T22:19:19.990Z,63.07
2022-08-07T22:22:05.178Z,64.05
2022-08-07T22:24:55.180Z,64.09
2022-08-07T22:27:51.163Z,64.42
2022-08-07T22:30:21.612Z,65.02
2022-08-07T22:33:05.948Z,65.08
2022-08-07T22:35:43.409Z,63.95
2022-08-07T22:38:29.304Z,65.12
2022-08-07T22:41:07.603Z,65.81
2022-08-07T22:43:44.564Z,65.03
2022-08-07T22:47:06.033Z,64.87
2022-08-07T22:49:55.937Z,65.24
2022-08-07T22:53:03.449Z,66.06
2022-08-07T22:55:52.838Z,67.14
2022-08-07T22:58:57.624Z,67.95
2022-08-07T23:02:00.696Z,66.68
2022-08-07T23:04:56.843Z,66.59
2022-08-07T23:07:44.298Z,67.11
2022-08-07T23:10:39.729Z,70.12
2022-08-07T23:14:09.139Z,70.77
2022-08-07T23:16:48.401Z,68.78
2022-08-07T23:19:52.193Z,68.27
2022-08-07T23:22:37.264Z,67.02
2022-08-07T23:25:28.281Z,67.94
2022-08-07T23:28:21.311Z,69.51
2022-08-07T23:31:43.010Z,69.39
2022-08-07T23:34:37.302Z,69.37
2022-08-07T23:37:25.380Z,66.97
2022-08-07T23:40:28.037Z,67.91
2022-08-07T23:43:16.720Z,69.00
2022-08-07T23:46:03.269Z,69.90
2022-08-07T23:49:15.455Z,71.18
2022-08-07T23:53:05.591Z,70.98
2022-08-07T23:54:52.151Z,69.47
2022-08-07T23:57:30.216Z,69.95
